createdAt,value
2022-10-09T00:01:29.430Z,102172.78
2022-10-09T00:03:56.973Z,102179.09
2022-10-09T00:06:27.203Z,102184.53
2022-10-09T00:08:53.679Z,102175.69
2022-10-09T00:11:23.684Z,102169.22
2022-10-09T00:13:51.396Z,102168.19
2022-10-09T00:16:19.125Z,102178.09
2022-10-09T00:18:46.783Z,102176.03
2022-10-09T00:21:27.654Z,102189.13
2022-10-09T00:23:56.838Z,102180.28
2022-10-09T00:26:24.526Z,102190.13
2022-10-09T00:28:51.063Z,102190.13
2022-10-09T00:31:18.295Z,102188.97
2022-10-09T00:33:45.230Z,102190.69
2022-10-09T00:36:14.821Z,102189.09
2022-10-09T00:38:41.282Z,102191.03
2022-10-09T00:41:08.694Z,102188.53
2022-10-09T00:43:41.289Z,102191.06
2022-10-09T00:46:16.806Z,102175.31
2022-10-09T00:48:43.540Z,102187.72
2022-10-09T00:51:10.127Z,102181.41
2022-10-09T00:53:36.604Z,102178.41
2022-10-09T00:56:03.137Z,102182.78
2022-10-09T00:58:29.738Z,102170.28
2022-10-09T01:00:56.202Z,102193.72
2022-10-09T01:03:22.633Z,102188.44
2022-10-09T01:05:51.738Z,102189.56
2022-10-09T01:08:23.632Z,102184.31
2022-10-09T01:11:02.064Z,102193.53
2022-10-09T01:13:36.042Z,102194.97
2022-10-09T01:16:11.786Z,102193.47
2022-10-09T01:18:46.942Z,102190.84
2022-10-09T01:21:37.257Z,102192.91
2022-10-09T01:24:10.999Z,102180.16
2022-10-09T01:26:56.189Z,102181.63
2022-10-09T01:29:26.921Z,102186.94
2022-10-09T01:31:54.819Z,102178.44
2022-10-09T01:34:23.198Z,102177.66
2022-10-09T01:36:51.771Z,102165.91
2022-10-09T01:39:23.023Z,102168.00
2022-10-09T01:41:52.082Z,102161.22
2022-10-09T01:44:29.902Z,102161.88
2022-10-09T01:46:57.273Z,102166.28
2022-10-09T01:49:29.544Z,102170.28
2022-10-09T01:52:14.214Z,102161.19
2022-10-09T01:54:52.893Z,102160.97
2022-10-09T01:57:37.073Z,102167.16
2022-10-09T02:00:08.425Z,102158.00
2022-10-09T02:02:36.429Z,102153.16
2022-10-09T02:05:03.367Z,102159.16
2022-10-09T02:07:32.207Z,102153.50
2022-10-09T02:10:01.757Z,102152.59
2022-10-09T02:12:31.670Z,102155.81
2022-10-09T02:14:58.235Z,102147.09
2022-10-09T02:17:29.381Z,102148.09
2022-10-09T02:20:03.306Z,102153.63
2022-10-09T02:22:31.474Z,102152.03
2022-10-09T02:25:01.436Z,102142.94
2022-10-09T02:27:28.556Z,102135.69
2022-10-09T02:29:55.236Z,102142.03
2022-10-09T02:32:21.898Z,102139.16
2022-10-09T02:34:48.334Z,102143.88
2022-10-09T02:37:14.975Z,102136.06
2022-10-09T02:39:43.095Z,102122.03
2022-10-09T02:42:09.625Z,102137.09
2022-10-09T02:44:36.361Z,102140.06
2022-10-09T02:47:03.093Z,102135.91
2022-10-09T02:49:29.490Z,102135.69
2022-10-09T02:51:55.903Z,102141.94
2022-10-09T02:54:22.389Z,102142.63
2022-10-09T02:56:48.819Z,102147.13
2022-10-09T02:59:15.251Z,102138.97
2022-10-09T03:01:41.755Z,102132.91
2022-10-09T03:04:08.313Z,102131.75
2022-10-09T03:06:35.006Z,102133.00
2022-10-09T03:09:01.807Z,102137.84
2022-10-09T03:11:28.260Z,102136.00
2022-10-09T03:13:54.688Z,102137.59
2022-10-09T03:16:23.401Z,102129.56
2022-10-09T03:18:51.436Z,102133.44
2022-10-09T03:21:24.148Z,102123.25
2022-10-09T03:23:52.279Z,102121.66
2022-10-09T03:26:21.459Z,102129.44
2022-10-09T03:28:50.327Z,102130.47
2022-10-09T03:31:46.481Z,102123.69
2022-10-09T03:34:05.394Z,102119.19
2022-10-09T03:36:31.804Z,102116.78
2022-10-09T03:38:58.183Z,102123.66
2022-10-09T03:41:24.586Z,102128.03
2022-10-09T03:43:51.056Z,102135.81
2022-10-09T03:46:17.519Z,102125.44
2022-10-09T03:48:43.998Z,102133.03
2022-10-09T03:51:10.388Z,102135.88
2022-10-09T03:53:36.968Z,102132.09
2022-10-09T03:56:03.523Z,102136.13
2022-10-09T03:58:29.957Z,102139.19
2022-10-09T04:00:56.490Z,102127.38
2022-10-09T04:03:23.076Z,102131.28
2022-10-09T04:05:49.583Z,102131.41
2022-10-09T04:08:16.244Z,102136.91
2022-10-09T04:10:42.680Z,102132.22
2022-10-09T04:13:09.073Z,102132.78
2022-10-09T04:15:36.638Z,102139.28
2022-10-09T04:18:03.846Z,102133.19
2022-10-09T04:20:30.306Z,102128.34
2022-10-09T04:22:56.704Z,102133.84
2022-10-09T04:25:23.177Z,102128.69
2022-10-09T04:27:49.674Z,102128.09
2022-10-09T04:30:16.225Z,102115.00
2022-10-09T04:32:42.639Z,102126.50
2022-10-09T04:35:09.153Z,102128.75
2022-10-09T04:37:36.659Z,102124.88
2022-10-09T04:40:03.700Z,102119.69
2022-10-09T04:42:30.352Z,102123.38
2022-10-09T04:44:56.787Z,102126.94
2022-10-09T04:47:23.212Z,102122.44
2022-10-09T04:49:49.932Z,102110.03
2022-10-09T04:52:16.326Z,102109.44
2022-10-09T04:54:42.833Z,102109.66
2022-10-09T04:57:09.342Z,102114.69
2022-10-09T04:59:35.782Z,102107.56
2022-10-09T05:02:02.281Z,102113.56
2022-10-09T05:04:28.884Z,102114.69
2022-10-09T05:06:55.285Z,102111.47
2022-10-09T05:09:21.682Z,102110.19
2022-10-09T05:11:48.081Z,102117.63
2022-10-09T05:14:14.594Z,102107.63
2022-10-09T05:17:08.413Z,102109.84
2022-10-09T05:19:27.534Z,102109.38
2022-10-09T05:21:54.301Z,102105.72
2022-10-09T05:24:21.117Z,102105.03
2022-10-09T05:26:47.502Z,102105.72
2022-10-09T05:29:13.964Z,102112.31
2022-10-09T05:31:40.499Z,102113.34
2022-10-09T05:34:06.981Z,102117.56
2022-10-09T05:36:33.363Z,102115.47
2022-10-09T05:39:01.172Z,102111.94
2022-10-09T05:41:31.173Z,102119.97
2022-10-09T05:44:01.769Z,102114.03
2022-10-09T05:46:29.763Z,102121.94
2022-10-09T05:48:58.654Z,102121.78
2022-10-09T05:51:30.483Z,102109.84
2022-10-09T05:53:57.837Z,102116.28
2022-10-09T05:56:27.493Z,102112.78
2022-10-09T05:58:59.269Z,102114.13
2022-10-09T06:01:28.314Z,102113.81
2022-10-09T06:03:57.048Z,102109.56
2022-10-09T06:06:26.860Z,102110.19
2022-10-09T06:08:54.027Z,102103.53
2022-10-09T06:11:28.310Z,102109.03
2022-10-09T06:13:56.118Z,102116.94
2022-10-09T06:16:25.571Z,102111.13
2022-10-09T06:18:53.180Z,102115.47
2022-10-09T06:21:20.218Z,102116.63
2022-10-09T06:23:52.029Z,102118.22
2022-10-09T06:26:19.301Z,102122.06
2022-10-09T06:28:46.050Z,102120.56
2022-10-09T06:31:14.755Z,102124.28
2022-10-09T06:33:43.093Z,102131.38
2022-10-09T06:36:12.899Z,102125.06
2022-10-09T06:38:39.959Z,102129.78
2022-10-09T06:41:08.708Z,102132.97
2022-10-09T06:43:35.407Z,102117.75
2022-10-09T06:46:04.756Z,102129.97
2022-10-09T06:48:32.584Z,102124.47
2022-10-09T06:51:06.338Z,102131.25
2022-10-09T06:53:37.826Z,102130.09
2022-10-09T06:56:04.830Z,102122.44
2022-10-09T06:58:32.020Z,102125.34
2022-10-09T07:01:13.894Z,102132.03
2022-10-09T07:03:42.735Z,102127.13
2022-10-09T07:06:21.084Z,102132.09
2022-10-09T07:08:50.200Z,102129.59
2022-10-09T07:11:20.977Z,102125.94
2022-10-09T07:13:48.859Z,102126.66
2022-10-09T07:16:19.664Z,102123.00
2022-10-09T07:18:46.163Z,102118.09
2022-10-09T07:21:12.588Z,102122.81
2022-10-09T07:23:39.039Z,102123.06
2022-10-09T07:26:17.364Z,102119.03
2022-10-09T07:28:44.697Z,102128.94
2022-10-09T07:31:11.738Z,102128.13
2022-10-09T07:33:38.747Z,102127.34
2022-10-09T07:36:06.496Z,102137.56
2022-10-09T07:38:33.071Z,102128.81
2022-10-09T07:41:01.726Z,102125.59
2022-10-09T07:43:28.247Z,102123.50
2022-10-09T07:45:58.734Z,102124.41
2022-10-09T07:48:25.294Z,102121.16
2022-10-09T07:50:51.707Z,102123.97
2022-10-09T07:53:18.221Z,102125.19
2022-10-09T07:55:48.867Z,102125.59
2022-10-09T07:58:16.640Z,102114.91
2022-10-09T08:00:44.331Z,102122.34
2022-10-09T08:03:11.142Z,102125.38
2022-10-09T08:05:37.583Z,102115.88
2022-10-09T08:08:04.097Z,102116.28
2022-10-09T08:10:31.220Z,102117.44
2022-10-09T08:12:57.677Z,102112.25
2022-10-09T08:15:24.388Z,102111.47
2022-10-09T08:17:54.771Z,102106.69
2022-10-09T08:20:21.658Z,102112.16
2022-10-09T08:22:48.483Z,102113.63
2022-10-09T08:25:15.109Z,102115.19
2022-10-09T08:27:41.524Z,102107.94
2022-10-09T08:30:08.585Z,102110.63
2022-10-09T08:32:35.007Z,102106.97
2022-10-09T08:35:01.583Z,102111.59
2022-10-09T08:37:27.986Z,102114.31
2022-10-09T08:39:54.402Z,102104.72
2022-10-09T08:42:32.327Z,102101.06
2022-10-09T08:44:58.825Z,102099.22
2022-10-09T08:47:28.325Z,102094.44
2022-10-09T08:50:10.795Z,102088.84
2022-10-09T08:53:02.322Z,102096.59
2022-10-09T08:55:33.015Z,102092.50
2022-10-09T08:58:05.133Z,102093.03
2022-10-09T09:00:45.960Z,102091.31
2022-10-09T09:03:44.795Z,102083.94
2022-10-09T09:06:39.286Z,102081.72
2022-10-09T09:09:40.343Z,102074.00
2022-10-09T09:12:21.932Z,102061.38
2022-10-09T09:15:25.621Z,102066.28
2022-10-09T09:18:30.289Z,102060.84
2022-10-09T09:21:10.614Z,102063.34
2022-10-09T09:23:42.459Z,102065.78
2022-10-09T09:26:21.595Z,102063.06
2022-10-09T09:28:52.895Z,102057.13
2022-10-09T09:31:30.284Z,102053.13
2022-10-09T09:34:14.691Z,102053.56
2022-10-09T09:36:54.065Z,102053.56
2022-10-09T09:40:08.300Z,102048.75
2022-10-09T09:42:10.944Z,102034.75
2022-10-09T09:44:42.897Z,102042.72
2022-10-09T09:47:15.955Z,102035.88
2022-10-09T09:49:57.767Z,102029.06
2022-10-09T09:52:28.356Z,102027.41
2022-10-09T09:54:57.335Z,102022.13
2022-10-09T09:57:37.264Z,102024.47
2022-10-09T10:00:15.994Z,102021.53
2022-10-09T10:02:42.566Z,102008.31
2022-10-09T10:05:26.222Z,102006.97
2022-10-09T10:07:53.274Z,102009.31
2022-10-09T10:10:27.361Z,102007.72
2022-10-09T10:13:00.200Z,101988.53
2022-10-09T10:15:27.994Z,101997.69
2022-10-09T10:17:57.301Z,101989.94
2022-10-09T10:20:23.958Z,101989.38
2022-10-09T10:22:53.068Z,101982.47
2022-10-09T10:25:23.440Z,101986.25
2022-10-09T10:27:55.445Z,101983.66
2022-10-09T10:30:21.916Z,101967.53
2022-10-09T10:33:17.626Z,101982.50
2022-10-09T10:35:45.624Z,101979.47
2022-10-09T10:38:39.437Z,101972.06
2022-10-09T10:41:12.020Z,101973.53
2022-10-09T10:43:43.595Z,101967.22
2022-10-09T10:46:17.904Z,101966.34
2022-10-09T10:48:47.240Z,101962.09
2022-10-09T10:51:13.646Z,101957.97
2022-10-09T10:53:58.319Z,101940.91
2022-10-09T10:56:48.469Z,101944.28
2022-10-09T10:59:46.013Z,101938.47
2022-10-09T11:02:18.187Z,101928.66
2022-10-09T11:05:22.997Z,101932.56
2022-10-09T11:08:08.752Z,101921.41
2022-10-09T11:10:55.569Z,101915.63
2022-10-09T11:13:34.875Z,101909.34
2022-10-09T11:16:21.992Z,101906.09
2022-10-09T11:18:57.597Z,101884.69
2022-10-09T11:21:42.835Z,101897.63
2022-10-09T11:24:30.992Z,101901.25
2022-10-09T11:27:17.497Z,101898.06
2022-10-09T11:29:51.307Z,101887.81
2022-10-09T11:32:28.511Z,101889.94
2022-10-09T11:34:59.512Z,101881.63
2022-10-09T11:37:30.917Z,101873.69
2022-10-09T11:39:57.351Z,101871.81
2022-10-09T11:42:26.280Z,101867.84
2022-10-09T11:45:14.617Z,101863.13
2022-10-09T11:48:02.901Z,101871.03
2022-10-09T11:50:51.304Z,101858.16
2022-10-09T11:53:39.843Z,101859.47
2022-10-09T11:56:21.356Z,101846.19
2022-10-09T11:59:07.529Z,101837.72
2022-10-09T12:01:39.746Z,101833.44
2022-10-09T12:04:37.363Z,101831.50
2022-10-09T12:07:12.500Z,101814.66
2022-10-09T12:09:44.541Z,101812.69
2022-10-09T12:12:16.916Z,101818.59
2022-10-09T12:14:46.756Z,101816.75
2022-10-09T12:17:38.400Z,101807.63
2022-10-09T12:20:18.262Z,101799.03
2022-10-09T12:23:07.382Z,101797.06
2022-10-09T12:25:45.622Z,101790.00
2022-10-09T12:28:30.751Z,101788.72
2022-10-09T12:31:01.053Z,101787.69
2022-10-09T12:33:39.390Z,101788.31
2022-10-09T12:36:22.186Z,101779.31
2022-10-09T12:38:48.654Z,101778.03
2022-10-09T12:41:21.875Z,101766.22
2022-10-09T12:43:51.136Z,101756.38
2022-10-09T12:46:39.165Z,101758.88
2022-10-09T12:49:18.875Z,101747.84
2022-10-09T12:51:53.841Z,101746.19
2022-10-09T12:54:24.969Z,101740.13
2022-10-09T12:56:53.372Z,101731.28
2022-10-09T12:59:20.688Z,101726.50
2022-10-09T13:01:48.780Z,101715.22
2022-10-09T13:04:33.118Z,101711.75
2022-10-09T13:07:05.647Z,101717.47
2022-10-09T13:09:38.298Z,101709.59
2022-10-09T13:12:09.882Z,101706.72
2022-10-09T13:14:42.920Z,101704.31
2022-10-09T13:17:33.491Z,101699.53
2022-10-09T13:20:21.325Z,101697.22
2022-10-09T13:22:55.375Z,101695.28
2022-10-09T13:25:23.175Z,101686.41
2022-10-09T13:27:49.745Z,101683.84
2022-10-09T13:30:16.531Z,101677.13
2022-10-09T13:32:42.961Z,101664.34
2022-10-09T13:35:09.496Z,101669.50
2022-10-09T13:37:35.950Z,101664.84
2022-10-09T13:40:02.606Z,101663.25
2022-10-09T13:42:39.468Z,101669.09
2022-10-09T13:45:06.462Z,101659.13
2022-10-09T13:47:33.182Z,101655.06
2022-10-09T13:49:59.639Z,101656.84
2022-10-09T13:52:26.164Z,101641.75
2022-10-09T13:54:52.617Z,101637.00
2022-10-09T13:57:19.175Z,101638.81
2022-10-09T13:59:45.665Z,101642.28
2022-10-09T14:02:12.586Z,101634.78
2022-10-09T14:04:39.318Z,101628.25
2022-10-09T14:07:05.739Z,101621.50
2022-10-09T14:09:32.180Z,101616.31
2022-10-09T14:11:58.855Z,101609.53
2022-10-09T14:14:25.271Z,101604.84
2022-10-09T14:16:51.818Z,101593.38
2022-10-09T14:19:18.399Z,101597.25
2022-10-09T14:21:46.719Z,101589.13
2022-10-09T14:24:14.380Z,101592.56
2022-10-09T14:26:41.255Z,101579.13
2022-10-09T14:29:07.781Z,101592.22
2022-10-09T14:31:34.270Z,101578.94
2022-10-09T14:34:00.803Z,101579.38
2022-10-09T14:36:28.118Z,101572.59
2022-10-09T14:38:55.300Z,101565.38
2022-10-09T14:41:22.481Z,101578.44
2022-10-09T14:43:56.080Z,101571.03
2022-10-09T14:46:23.074Z,101567.09
2022-10-09T14:48:50.017Z,101564.63
2022-10-09T14:51:18.979Z,101560.09
2022-10-09T14:53:46.303Z,101551.25
2022-10-09T14:56:21.060Z,101552.06
2022-10-09T14:58:48.183Z,101543.59
2022-10-09T15:01:18.133Z,101537.16
2022-10-09T15:03:46.034Z,101535.59
2022-10-09T15:06:13.036Z,101528.22
2022-10-09T15:08:42.118Z,101519.91
2022-10-09T15:11:10.226Z,101509.19
2022-10-09T15:13:37.051Z,101516.72
2022-10-09T15:16:15.131Z,101508.72
2022-10-09T15:18:41.896Z,101502.53
2022-10-09T15:21:20.291Z,101512.38
2022-10-09T15:23:47.295Z,101510.84
2022-10-09T15:26:14.155Z,101503.13
2022-10-09T15:28:42.351Z,101498.16
2022-10-09T15:31:36.701Z,101504.91
2022-10-09T15:34:04.748Z,101491.03
2022-10-09T15:36:34.386Z,101487.78
2022-10-09T15:39:05.478Z,101492.56
2022-10-09T15:41:34.539Z,101491.44
2022-10-09T15:44:04.122Z,101484.94
2022-10-09T15:46:31.345Z,101482.25
2022-10-09T15:48:58.275Z,101480.56
2022-10-09T15:51:25.558Z,101479.56
2022-10-09T15:53:52.592Z,101474.91
2022-10-09T15:56:24.656Z,101471.97
2022-10-09T15:58:52.895Z,101469.38
2022-10-09T16:01:20.244Z,101469.34
2022-10-09T16:03:46.764Z,101453.22
2022-10-09T16:06:20.990Z,101455.50
2022-10-09T16:08:48.002Z,101452.88
2022-10-09T16:11:19.155Z,101445.72
2022-10-09T16:13:48.555Z,101446.00
2022-10-09T16:16:20.852Z,101449.47
2022-10-09T16:18:47.604Z,101442.81
2022-10-09T16:21:19.876Z,101447.72
2022-10-09T16:23:46.861Z,101440.75
2022-10-09T16:26:16.824Z,101444.44
2022-10-09T16:28:44.112Z,101436.38
2022-10-09T16:31:21.997Z,101441.03
2022-10-09T16:33:48.609Z,101444.81
2022-10-09T16:36:15.395Z,101435.84
2022-10-09T16:38:42.193Z,101430.50
2022-10-09T16:41:11.832Z,101439.53
2022-10-09T16:43:39.432Z,101429.53
2022-10-09T16:46:16.950Z,101439.84
2022-10-09T16:48:43.461Z,101433.78
2022-10-09T16:51:11.980Z,101431.00
2022-10-09T16:53:38.488Z,101433.91
2022-10-09T16:56:12.325Z,101423.84
2022-10-09T16:58:40.035Z,101427.34
2022-10-09T17:01:09.930Z,101427.97
2022-10-09T17:03:40.177Z,101430.25
2022-10-09T17:06:12.724Z,101418.38
2022-10-09T17:08:39.264Z,101415.47
2022-10-09T17:11:10.430Z,101416.06
2022-10-09T17:13:37.528Z,101414.25
2022-10-09T17:16:08.612Z,101421.19
2022-10-09T17:18:36.546Z,101419.28
2022-10-09T17:21:08.054Z,101411.06
2022-10-09T17:23:36.046Z,101418.72
2022-10-09T17:26:16.947Z,101414.56
2022-10-09T17:28:44.269Z,101411.50
2022-10-09T17:31:14.266Z,101414.44
2022-10-09T17:33:42.893Z,101406.66
2022-10-09T17:36:10.222Z,101404.41
2022-10-09T17:38:37.300Z,101414.09
2022-10-09T17:41:08.057Z,101409.13
2022-10-09T17:43:34.699Z,101417.59
2022-10-09T17:46:01.587Z,101416.53
2022-10-09T17:48:29.118Z,101417.03
2022-10-09T17:50:57.789Z,101408.00
2022-10-09T17:53:25.307Z,101413.28
2022-10-09T17:55:53.578Z,101422.91
2022-10-09T17:58:21.352Z,101418.94
2022-10-09T18:00:48.475Z,101423.84
2022-10-09T18:03:16.255Z,101421.94
2022-10-09T18:05:45.435Z,101420.00
2022-10-09T18:08:12.975Z,101407.41
2022-10-09T18:10:39.564Z,101414.56
2022-10-09T18:13:09.886Z,101421.81
2022-10-09T18:15:37.716Z,101413.16
2022-10-09T18:18:04.780Z,101409.56
2022-10-09T18:20:33.196Z,101396.50
2022-10-09T18:22:59.646Z,101405.25
2022-10-09T18:25:26.161Z,101407.69
2022-10-09T18:27:52.881Z,101401.31
2022-10-09T18:30:20.639Z,101411.22
2022-10-09T18:32:48.374Z,101413.25
2022-10-09T18:35:15.444Z,101410.50
2022-10-09T18:37:41.900Z,101402.16
2022-10-09T18:40:09.015Z,101402.16
2022-10-09T18:42:35.928Z,101406.97
2022-10-09T18:45:03.135Z,101409.75
2022-10-09T18:47:33.349Z,101401.44
2022-10-09T18:50:02.683Z,101394.69
2022-10-09T18:52:30.158Z,101399.06
2022-10-09T18:54:58.399Z,101399.91
2022-10-09T18:57:26.404Z,101392.00
2022-10-09T18:59:54.337Z,101392.03
2022-10-09T19:02:25.966Z,101396.41
2022-10-09T19:04:56.386Z,101393.28
2022-10-09T19:07:22.825Z,101392.50
2022-10-09T19:09:53.569Z,101379.81
2022-10-09T19:12:21.415Z,101372.28
2022-10-09T19:14:47.890Z,101365.16
2022-10-09T19:17:14.446Z,101372.31
2022-10-09T19:19:41.012Z,101371.13
2022-10-09T19:22:10.607Z,101379.91
2022-10-09T19:24:39.312Z,101374.72
2022-10-09T19:27:05.739Z,101363.63
2022-10-09T19:29:32.396Z,101373.97
2022-10-09T19:31:58.855Z,101365.63
2022-10-09T19:34:25.325Z,101365.19
2022-10-09T19:36:51.877Z,101369.59
2022-10-09T19:39:19.416Z,101371.56
2022-10-09T19:41:48.596Z,101372.34
2022-10-09T19:44:15.214Z,101367.97
2022-10-09T19:46:41.726Z,101367.19
2022-10-09T19:49:09.189Z,101366.41
2022-10-09T19:51:36.629Z,101367.19
2022-10-09T19:54:05.218Z,101357.66
2022-10-09T19:56:33.981Z,101369.13
2022-10-09T19:59:02.534Z,101363.59
2022-10-09T20:01:30.075Z,101361.22
2022-10-09T20:03:58.443Z,101354.88
2022-10-09T20:06:25.611Z,101344.53
2022-10-09T20:08:52.177Z,101347.69
2022-10-09T20:11:20.433Z,101350.84
2022-10-09T20:13:50.957Z,101352.03
2022-10-09T20:16:19.998Z,101350.41
2022-10-09T20:18:46.442Z,101353.16
2022-10-09T20:21:15.700Z,101357.53
2022-10-09T20:23:44.163Z,101342.44
2022-10-09T20:26:16.468Z,101340.44
2022-10-09T20:28:43.961Z,101347.94
2022-10-09T20:31:17.939Z,101340.03
2022-10-09T20:33:45.907Z,101343.16
2022-10-09T20:36:22.803Z,101335.63
2022-10-09T20:38:49.601Z,101328.03
2022-10-09T20:41:16.205Z,101335.56
2022-10-09T20:43:42.667Z,101339.91
2022-10-09T20:46:14.144Z,101337.13
2022-10-09T20:48:44.473Z,101325.63
2022-10-09T20:51:10.962Z,101330.72
2022-10-09T20:53:37.483Z,101332.28
2022-10-09T20:56:06.662Z,101323.56
2022-10-09T20:58:34.635Z,101323.50
2022-10-09T21:01:05.889Z,101309.97
2022-10-09T21:03:33.032Z,101312.72
2022-10-09T21:06:03.155Z,101314.72
2022-10-09T21:08:29.827Z,101316.69
2022-10-09T21:10:56.333Z,101313.50
2022-10-09T21:13:22.818Z,101308.38
2022-10-09T21:15:50.195Z,101310.66
2022-10-09T21:18:18.714Z,101309.09
2022-10-09T21:20:47.115Z,101312.22
2022-10-09T21:23:15.505Z,101308.25
2022-10-09T21:25:49.747Z,101305.47
2022-10-09T21:28:17.824Z,101292.34
2022-10-09T21:30:44.496Z,101287.22
2022-10-09T21:33:11.027Z,101301.88
2022-10-09T21:35:42.839Z,101298.69
2022-10-09T21:38:12.995Z,101298.63
2022-10-09T21:40:40.061Z,101292.66
2022-10-09T21:43:06.980Z,101296.16
2022-10-09T21:45:33.645Z,101287.41
2022-10-09T21:48:00.186Z,101291.75
2022-10-09T21:50:26.772Z,101290.97
2022-10-09T21:52:53.431Z,101284.97
2022-10-09T21:55:20.227Z,101282.91
2022-10-09T21:57:46.787Z,101259.97
2022-10-09T22:00:13.411Z,101274.22
2022-10-09T22:02:39.861Z,101273.41
2022-10-09T22:05:07.913Z,101265.88
2022-10-09T22:07:34.569Z,101259.50
2022-10-09T22:10:00.986Z,101260.22
2022-10-09T22:12:27.524Z,101263.41
2022-10-09T22:14:55.264Z,101259.78
2022-10-09T22:17:21.723Z,101255.06
2022-10-09T22:19:48.304Z,101247.16
2022-10-09T22:22:14.761Z,101249.09
2022-10-09T22:24:41.202Z,101237.16
2022-10-09T22:27:07.649Z,101239.13
2022-10-09T22:29:34.607Z,101225.97
2022-10-09T22:32:01.011Z,101238.25
2022-10-09T22:34:27.589Z,101238.25
2022-10-09T22:36:54.001Z,101238.63
2022-10-09T22:39:20.426Z,101237.06
2022-10-09T22:41:46.828Z,101233.88
2022-10-09T22:44:13.283Z,101228.72
2022-10-09T22:46:41.696Z,101224.25
2022-10-09T22:49:11.747Z,101227.44
2022-10-09T22:51:38.178Z,101219.91
2022-10-09T22:54:05.455Z,101231.41
2022-10-09T22:56:39.022Z,101223.06
2022-10-09T22:59:07.277Z,101229.34
2022-10-09T23:01:35.560Z,101230.91
2022-10-09T23:04:05.370Z,101214.69
2022-10-09T23:06:31.791Z,101221.41
2022-10-09T23:08:59.049Z,101224.53
2022-10-09T23:11:26.387Z,101222.09
2022-10-09T23:13:55.004Z,101212.16
2022-10-09T23:16:21.998Z,101210.97
2022-10-09T23:18:48.742Z,101214.50
2022-10-09T23:21:17.585Z,101205.06
2022-10-09T23:23:45.056Z,101194.72
2022-10-09T23:26:15.171Z,101203.81
2022-10-09T23:28:42.391Z,101210.50
2022-10-09T23:31:10.258Z,101198.59
2022-10-09T23:33:39.483Z,101187.53
2022-10-09T23:36:07.167Z,101196.56
2022-10-09T23:38:34.133Z,101187.38
2022-10-09T23:41:07.093Z,101194.47
2022-10-09T23:43:36.146Z,101184.19
2022-10-09T23:46:04.626Z,101186.16
2022-10-09T23:48:31.209Z,101183.41
2022-10-09T23:50:57.916Z,101184.53
2022-10-09T23:53:26.137Z,101187.22
2022-10-09T23:55:53.876Z,101182.50
2022-10-09T23:58:21.232Z,101174.53
